Terminal Aerodrome Forecast
Issued by NWS

Home | Current Version | Previous Version | Text Only | Print | Product List | Glossary On
Versions: 1 2 3 4 5 6 7 8 9 10 11 12 13 14 15 16 17 18 19 20 21
310
FTUS43 KSGF 301406 AAA
TAFJLN
TAF AMD
KJLN 301406Z 3014/3112 21010KT 5SM -DZ BR OVC007
      TEMPO 3014/3018 2SM -RADZ BR OVC005
     FM302000 24010KT P6SM OVC008
     FM310000 27010KT P6SM OVC010
     FM310500 31007KT P6SM BKN010=

USA.gov is the U.S. government's official web portal to all federal, state and local government web resources and services.